Data for 10/02/2010

Time Sea-Level Adjusted Pressure Absolute Pressure Temperature Relative Humidity Dew Point   
(mb) (inHg) (mb) (inHg) (C) (F) (%) (C) (F)
00:05 1024 30.24 853 25.19 13.5 56.4 60 6.1 42.9
00:10 1024 30.24 853 25.19 13.4 56.1 61 6 42.8
00:15 1024 30.24 853 25.19 13.3 55.9 61 6 42.8
00:20 1024 30.24 853 25.19 13.1 55.5 62 6 42.8
00:25 1024 30.24 853 25.19 12.8 55.1 62 5.9 42.6
00:30 1024 30.24 853 25.19 12.7 54.9 63 5.9 42.6
00:35 1024 30.24 853 25.19 12.7 54.9 63 5.9 42.6
00:40 1024 30.24 853 25.19 12.8 55 63 5.8 42.5
00:45 1024 30.24 853 25.19 12.7 54.9 63 6 42.7
00:50 1024 30.24 853 25.19 12.6 54.8 63 5.9 42.7
00:55 1024 30.24 853 25.19 12.5 54.4 64 5.9 42.6
01:00 1024 30.24 853 25.19 12.3 54.1 65 5.9 42.6
01:05 1024 30.24 853 25.19 12.2 53.9 65 5.9 42.5
01:10 1024 30.24 854 25.22 12 53.7 66 5.9 42.6
01:15 1024 30.24 854 25.22 11.9 53.5 66 5.8 42.4
01:20 1024 30.24 854 25.22 11.9 53.4 66 5.8 42.5
01:25 1024 30.24 854 25.22 11.8 53.3 67 5.9 42.6
01:30 1024 30.24 854 25.22 11.9 53.4 66 5.9 42.6
01:35 1024 30.24 853 25.19 11.9 53.3 67 5.9 42.7
01:40 1024 30.24 853 25.19 11.8 53.2 67 5.9 42.7
01:45 1024 30.24 853 25.19 11.8 53.2 67 5.9 42.6
01:50 1024 30.24 853 25.19 11.9 53.4 67 6 42.8
01:55 1024 30.24 853 25.19 11.8 53.2 68 6 42.8
02:00 1024 30.24 853 25.19 11.7 53 68 5.9 42.7
02:05 1024 30.24 853 25.19 11.7 53 68 6 42.8
02:10 1024 30.24 853 25.19 11.6 52.8 69 6 42.8
02:15 1024 30.24 853 25.19 11.4 52.5 69 6 42.8
02:20 1024 30.24 853 25.19 11.3 52.4 69 5.9 42.6
02:25 1024 30.24 853 25.19 11.4 52.5 69 5.9 42.7
02:30 1024 30.24 853 25.19 11.3 52.4 69 5.9 42.7
02:35 1024 30.24 853 25.19 11.2 52.1 70 5.9 42.6
02:40 1024 30.24 853 25.19 11 51.8 70 5.8 42.5
02:45 1024 30.24 854 25.22 10.9 51.7 70 5.8 42.4
02:50 1024 30.24 853 25.19 10.8 51.5 71 5.7 42.3
02:55 1024 30.24 853 25.19 10.8 51.4 71 5.7 42.2
03:00 1024 30.24 853 25.19 10.7 51.2 71 5.7 42.2
03:05 1024 30.24 853 25.19 10.7 51.2 71 5.5 42
03:10 1024 30.24 853 25.19 10.7 51.3 71 5.6 42.1
03:15 1024 30.24 853 25.19 10.7 51.2 70 5.5 42
03:20 1024 30.24 853 25.19 10.6 51.2 71 5.5 42
03:25 1024 30.24 853 25.19 10.6 51.1 70 5.5 41.9
03:30 1024 30.24 853 25.19 10.7 51.3 70 5.4 41.8
03:35 1024 30.24 853 25.19 10.7 51.3 69 5.4 41.8
03:40 1024 30.24 853 25.19 10.7 51.3 70 5.5 41.8
03:45 1024 30.24 853 25.19 10.6 51.1 70 5.4 41.7
03:50 1024 30.24 853 25.19 10.5 51 70 5.4 41.7
03:55 1024 30.24 853 25.19 10.4 50.8 70 5.3 41.5
04:00 1024 30.24 853 25.19 10.5 50.8 70 5.2 41.3
04:05 1024 30.24 853 25.19 10.6 51.1 69 5.2 41.4
04:10 1024 30.24 853 25.19 10.6 51.2 69 5.2 41.3
04:15 1024 30.24 853 25.19 10.7 51.2 69 5.3 41.6
04:20 1024 30.24 853 25.19 10.6 51 69 5.2 41.3
04:25 1024 30.24 853 25.19 10.6 51 69 5.2 41.3
04:30 1024 30.24 853 25.19 10.5 50.9 69 5.1 41.2
04:35 1024 30.24 853 25.19 10.6 51 68 5 41.1
04:40 1023 30.21 853 25.19 10.6 51.2 68 5.1 41.2
04:45 1023 30.21 853 25.19 10.5 51 69 5.1 41.2
04:50 1023 30.21 853 25.19 10.7 51.3 68 5 41
04:55 1023 30.21 853 25.19 10.8 51.4 67 5 40.9
05:00 1023 30.21 853 25.19 11 51.7 67 5.1 41.1
05:05 1023 30.21 853 25.19 11.1 51.9 65 4.8 40.6
05:10 1023 30.21 853 25.19 11.3 52.4 64 4.9 40.8
05:15 1023 30.21 853 25.19 11.4 52.6 65 5 41.1
05:20 1023 30.21 853 25.19 11.3 52.3 65 5.1 41.1
05:25 1023 30.21 853 25.19 11 51.9 66 5 41
05:30 1024 30.24 853 25.19 10.9 51.5 67 5.1 41.2
05:35 1024 30.24 853 25.19 10.3 50.5 69 4.9 40.9
05:40 1024 30.24 853 25.19 10.1 50.2 70 4.8 40.7
05:45 1024 30.24 853 25.19 10 49.9 70 4.8 40.7
05:50 1024 30.24 853 25.19 9.8 49.7 71 4.8 40.6
05:55 1024 30.24 853 25.19 9.6 49.2 72 4.9 40.7
06:00 1024 30.24 853 25.19 9.4 48.8 73 4.7 40.5
06:05 1024 30.24 853 25.19 9.1 48.4 74 4.8 40.6
06:10 1024 30.24 853 25.19 9 48.1 75 4.7 40.5
06:15 1024 30.24 853 25.19 8.9 48.1 75 4.7 40.4
06:20 1024 30.24 853 25.19 8.8 47.8 75 4.6 40.3
06:25 1024 30.24 853 25.19 8.7 47.6 76 4.7 40.4
06:30 1024 30.24 853 25.19 8.8 47.8 74 4.4 39.9
06:35 1024 30.24 853 25.19 9 48.2 74 4.7 40.5
06:40 1024 30.24 853 25.19 8.7 47.7 74 4.4 39.9
06:45 1024 30.24 853 25.19 8.4 47.1 72 3.8 38.8
06:50 1024 30.24 853 25.19 8 46.4 72 3.3 38
06:55 1024 30.24 853 25.19 8.2 46.8 68 2.7 36.9
07:00 1024 30.24 853 25.19 7.7 45.9 69 2.5 36.5
07:05 1024 30.24 853 25.19 7.5 45.6 71 2.6 36.7
07:10 1024 30.24 853 25.19 7.1 44.8 72 2.4 36.3
07:15 1024 30.24 853 25.19 7.7 45.9 67 2.1 35.8
07:20 1024 30.24 853 25.19 7.4 45.3 70 2.2 36
07:25 1024 30.24 853 25.19 7.2 45 70 2.1 35.7
07:30 1024 30.24 853 25.19 7.3 45.1 68 1.8 35.2
07:35 1024 30.24 853 25.19 8.3 46.9 64 1.8 35.2
07:40 1024 30.24 853 25.19 8.8 47.8 63 2.1 35.8
07:45 1024 30.24 853 25.19 9.3 48.7 61 2.1 35.9
07:50 1024 30.24 853 25.19 9 48.1 64 2.5 36.5
07:55 1024 30.24 853 25.19 8.8 47.9 63 2.2 36
08:00 1024 30.24 853 25.19 8.7 47.7 66 2.8 37.1
08:05 1024 30.24 853 25.19 8.8 47.8 62 2 35.6
08:10 1024 30.24 853 25.19 9.1 48.4 62 2.2 36
08:15 1024 30.24 853 25.19 9.1 48.3 61 2 35.6
08:20 1024 30.24 853 25.19 9.2 48.6 62 2.2 36
08:25 1024 30.24 853 25.19 9.6 49.4 61 2.5 36.4
08:30 1024 30.24 853 25.19 10.2 50.3 60 2.7 36.9
08:35 1024 30.24 853 25.19 10.5 50.8 61 3.3 37.9
08:40 1024 30.24 853 25.19 10.8 51.4 60 3.4 38.2
08:45 1024 30.24 853 25.19 11 51.8 59 3.4 38.1
08:50 1024 30.24 853 25.19 11.5 52.6 58 3.6 38.4
08:55 1024 30.24 853 25.19 11.7 53.1 58 3.7 38.6
09:00 1024 30.24 853 25.19 12 53.7 56 3.6 38.5
09:05 1024 30.24 853 25.19 12.4 54.3 55 3.6 38.5
09:10 1024 30.24 853 25.19 12.5 54.6 53 3.2 37.8
09:15 1024 30.24 853 25.19 13.2 55.8 51 3.5 38.3
09:20 1024 30.24 853 25.19 13.6 56.4 50 3.6 38.4
09:25 1024 30.24 853 25.19 13.9 57.1 51 3.9 39.1
09:30 1024 30.24 853 25.19 14 57.1 51 4 39.2
09:35 1024 30.24 853 25.19 14.5 58.1 50 4.4 40
09:40 1024 30.24 853 25.19 14.8 58.7 50 4.7 40.5
09:45 1024 30.24 853 25.19 15.1 59.2 48 4.3 39.8
09:50 1024 30.24 853 25.19 15 59.1 48 4.3 39.7
09:55 1024 30.24 853 25.19 15 59.1 48 4.2 39.6
10:00 1024 30.24 853 25.19 16.1 61 44 3.8 38.9
10:05 1024 30.24 853 25.19 16.6 61.9 44 4.3 39.7
10:10 1024 30.24 853 25.19 16.6 62 43 4.1 39.3
10:15 1024 30.24 853 25.19 17.1 62.8 43 4.7 40.4
10:20 1024 30.24 853 25.19 17.5 63.4 43 4.7 40.5
10:25 1024 30.24 853 25.19 17.8 64 43 5 41.1
10:30 1024 30.24 853 25.19 17.5 63.5 42 4.6 40.3
10:35 1024 30.24 853 25.19 17.3 63.2 42 4.5 40
10:40 1024 30.24 853 25.19 17.6 63.6 42 4.6 40.3
10:45 1024 30.24 853 25.19 17.9 64.1 41 4.4 40
10:50 1024 30.24 853 25.19 18.1 64.5 41 4.8 40.7
10:55 1024 30.24 853 25.19 18.1 64.5 42 5.2 41.4
11:00 1024 30.24 853 25.19 17.5 63.5 43 5 41
11:05 1024 30.24 853 25.19 17.4 63.4 44 5.3 41.5
11:10 1024 30.24 853 25.19 17.6 63.7 42 4.8 40.6
11:15 1024 30.24 853 25.19 17.8 64.1 42 4.9 40.9
11:20 1024 30.24 853 25.19 18.4 65.1 41 5 40.9
11:25 1023 30.21 853 25.19 19.3 66.7 41 5.7 42.3
11:30 1023 30.21 853 25.19 19.3 66.7 39 5.2 41.3
11:35 1023 30.21 853 25.19 19.8 67.6 39 5.6 42.1
11:40 1023 30.21 853 25.19 20.2 68.3 37 5.4 41.7
11:45 1023 30.21 853 25.19 19.3 66.7 40 5.4 41.7
11:50 1023 30.21 853 25.19 19.5 67 39 5.4 41.8
11:55 1023 30.21 852 25.16 18.8 65.9 40 5.1 41.2
12:00 1023 30.21 852 25.16 19.6 67.2 37 4.8 40.6
12:05 1023 30.21 852 25.16 20.1 68.2 38 5.6 42.1
12:10 1023 30.21 852 25.16 20.2 68.3 36 4.8 40.6
12:15 1023 30.21 852 25.16 20 68.1 37 5 41
12:20 1023 30.21 852 25.16 20.7 69.2 34 4.6 40.4
12:25 1023 30.21 852 25.16 20.8 69.4 36 5.3 41.5
12:30 1023 30.21 852 25.16 19.6 67.2 39 5.4 41.7
12:35 1023 30.21 852 25.16 19.6 67.4 39 5.5 41.8
12:40 1023 30.21 852 25.16 20.5 68.8 36 5 40.9
12:45 1023 30.21 852 25.16 21.3 70.4 33 4.4 40
12:50 1023 30.21 852 25.16 21.8 71.2 33 4.8 40.7
12:55 1023 30.21 852 25.16 22.5 72.5 31 4.7 40.5
13:00 1023 30.21 852 25.16 23 73.5 31 5.2 41.4
13:05 1023 30.21 852 25.16 23 73.5 32 5.6 42.1
13:10 1023 30.21 852 25.16 21.9 71.4 33 5 40.9
13:15 1023 30.21 852 25.16 22.2 71.9 32 5 41
13:20 1023 30.21 852 25.16 21.9 71.3 33 5 40.9
13:25 1023 30.21 852 25.16 22.7 72.8 32 5.3 41.6
13:30 1023 30.21 852 25.16 22 71.6 33 5 41
13:35 1022 30.18 852 25.16 22.6 72.7 31 4.8 40.7
13:40 1022 30.18 852 25.16 23 73.5 29 4.4 40
13:45 1022 30.18 852 25.16 24.1 75.3 28 4.5 40.1
13:50 1022 30.18 851 25.13 23.9 75 29 4.9 40.9
13:55 1022 30.18 851 25.13 24.1 75.3 28 4.4 40
14:00 1022 30.18 851 25.13 24.1 75.3 29 5.3 41.5
14:05 1022 30.18 851 25.13 24.4 75.8 29 5.6 42
14:10 1022 30.18 851 25.13 23.8 74.8 30 5.4 41.8
14:15 1022 30.18 851 25.13 23.6 74.5 28 4.4 39.8
14:20 1022 30.18 851 25.13 23.6 74.5 29 4.6 40.3
14:25 1022 30.18 851 25.13 24.1 75.3 30 5.8 42.4
14:30 1022 30.18 851 25.13 23.9 75 29 4.9 40.8
14:35 1022 30.18 851 25.13 24.2 75.6 27 4.5 40.1
14:40 1022 30.18 851 25.13 24.1 75.5 27 4.1 39.4
14:45 1022 30.18 851 25.13 25.2 77.3 26 4.6 40.2
14:50 1022 30.18 851 25.13 25.2 77.3 25 3.8 38.9
14:55 1022 30.18 851 25.13 24.2 75.5 26 3.6 38.4
15:00 1021 30.15 851 25.13 24.6 76.3 25 3.5 38.2
15:05 1021 30.15 851 25.13 25.3 77.5 22 2.5 36.5
15:10 1021 30.15 851 25.13 25.4 77.7 23 2.9 37.2
15:15 1021 30.15 851 25.13 25.5 77.9 23 3.1 37.5
15:20 1021 30.15 851 25.13 26.2 79.1 22 3.2 37.8
15:25 1021 30.15 850 25.1 25.8 78.5 23 3.1 37.6
15:30 1021 30.15 850 25.1 25.8 78.4 22 2.9 37.3
15:35 1021 30.15 850 25.1 26.3 79.3 21 2.4 36.2
15:40 1021 30.15 850 25.1 26.8 80.2 21 2.6 36.6
15:45 1021 30.15 850 25.1 25.9 78.6 21 2.4 36.2
15:50 1021 30.15 850 25.1 25.8 78.4 21 2.1 35.7
15:55 1021 30.15 850 25.1 26.7 80 20 2.1 35.8
16:00 1021 30.15 850 25.1 27.8 82 18 1.8 35.2
16:05 1021 30.15 850 25.1 28.3 82.9 17 1.6 34.9
16:10 1021 30.15 850 25.1 27.7 81.9 19 2 35.6
16:15 1021 30.15 850 25.1 28.1 82.5 16 0.3 32.5
16:20 1021 30.15 850 25.1 27.6 81.6 19 2.1 35.8
16:25 1021 30.15 850 25.1 26.7 80 18 0.5 32.9
16:30 1021 30.15 850 25.1 26.8 80.3 17 -0.1 31.9
16:35 1021 30.15 850 25.1 27 80.6 15 -1.3 29.7
16:40 1021 30.15 850 25.1 26.7 80 16 -0.7 30.7
16:45 1021 30.15 850 25.1 26.7 80 15 -1.7 28.9
16:50 1021 30.15 850 25.1 26.9 80.3 15 -1.6 29.1
16:55 1020 30.12 850 25.1 27.5 81.5 15 -1.3 29.6
17:00 1020 30.12 850 25.1 27.8 82.1 15 -0.8 30.6
17:05 1020 30.12 850 25.1 27.6 81.6 15 -1.5 29.3
17:10 1020 30.12 849 25.07 27.3 81.1 16 -0.2 31.6
17:15 1020 30.12 849 25.07 26.7 80 18 0.7 33.2
17:20 1020 30.12 849 25.07 26.6 79.9 21 2.8 37
17:25 1020 30.12 849 25.07 26.6 79.9 17 -0.4 31.2
17:30 1020 30.12 849 25.07 26.5 79.8 18 0.2 32.3
17:35 1020 30.12 849 25.07 26.6 79.9 18 0.8 33.4
17:40 1020 30.12 849 25.07 26.9 80.3 15 -1.3 29.6
17:45 1020 30.12 849 25.07 26.7 80 17 -0.5 31.2
17:50 1020 30.12 849 25.07 26.3 79.3 16 -1.2 29.9
17:55 1020 30.12 849 25.07 26.3 79.4 15 -1.8 28.8
18:00 1020 30.12 849 25.07 26.2 79.2 15 -2.1 28.3
18:05 1020 30.12 849 25.07 25.9 78.5 16 -1.4 29.5
18:10 1020 30.12 849 25.07 25.7 78.3 17 -0.6 31
18:15 1020 30.12 849 25.07 25.5 77.9 19 0.1 32.1
18:20 1020 30.12 849 25.07 25.4 77.6 19 0.5 32.8
18:25 1020 30.12 849 25.07 24.9 76.8 22 2.3 36.1
18:30 1020 30.12 849 25.07 24.4 75.9 23 2.3 36.2
18:35 1020 30.12 849 25.07 24 75.2 26 3.3 38
18:40 1020 30.12 849 25.07 23.6 74.5 27 3.6 38.5
18:45 1020 30.12 849 25.07 23.2 73.8 28 4.1 39.3
18:50 1020 30.12 849 25.07 22.9 73.2 31 5.3 41.6
18:55 1020 30.12 849 25.07 22.6 72.6 38 7.9 46.2
19:00 1020 30.12 849 25.07 21.9 71.5 38 7 44.7
19:05 1020 30.12 849 25.07 21.4 70.5 39 7 44.6
19:10 1020 30.12 849 25.07 20.7 69.3 39 6.5 43.6
19:15 1020 30.12 849 25.07 20.2 68.3 37 5.2 41.4
19:20 1020 30.12 849 25.07 19.7 67.4 38 5 40.9
19:25 1020 30.12 849 25.07 19.4 66.8 36 3.9 39.1
19:30 1020 30.12 849 25.07 19.2 66.6 40 5.6 42
19:35 1020 30.12 849 25.07 19.4 66.8 41 5.8 42.5
19:40 1020 30.12 849 25.07 19.2 66.6 33 2.6 36.7
19:45 1020 30.12 849 25.07 19.2 66.6 31 1.8 35.3
19:50 1020 30.12 849 25.07 19.8 67.6 34 3.5 38.3
19:55 1020 30.12 849 25.07 19.8 67.6 31 2.1 35.8
20:00 1020 30.12 849 25.07 19.3 66.8 31 1.7 35.1
20:05 1020 30.12 849 25.07 19 66.1 32 2 35.6
20:10 1020 30.12 849 25.07 18.3 65 29 0.1 32.2
20:15 1020 30.12 849 25.07 18.6 65.4 30 0.7 33.3
20:20 1020 30.12 849 25.07 18.8 65.8 28 0.1 32.1
20:25 1020 30.12 849 25.07 18.6 65.6 28 -0 31.9
20:30 1020 30.12 849 25.07 18.7 65.6 29 0.2 32.3
20:35 1020 30.12 849 25.07 18.2 64.7 29 0.1 32.3
20:40 1020 30.12 849 25.07 18.1 64.6 29 -0.2 31.6
20:45 1020 30.12 849 25.07 18.2 64.7 28 -0.4 31.3
20:50 1020 30.12 849 25.07 18.1 64.6 28 -0.4 31.2
20:55 1020 30.12 849 25.07 18.1 64.6 28 -0.4 31.4
21:00 1020 30.12 849 25.07 17.7 63.9 30 0.1 32.2
21:05 1020 30.12 849 25.07 17.3 63.1 31 0.2 32.4
21:10 1020 30.12 849 25.07 16.9 62.5 32 0.4 32.7
21:15 1020 30.12 849 25.07 16.6 61.8 33 0.3 32.6
21:20 1020 30.12 849 25.07 16.2 61.1 33 -0.1 31.7
21:25 1020 30.12 849 25.07 16.3 61.3 33 -0.1 31.8
21:30 1020 30.12 849 25.07 16.5 61.7 32 -0.3 31.4
21:35 1020 30.12 849 25.07 16.6 61.8 32 -0.2 31.7
21:40 1020 30.12 849 25.07 16.4 61.6 32 -0.3 31.5
21:45 1020 30.12 849 25.07 16.5 61.7 31 -0.4 31.3
21:50 1020 30.12 849 25.07 16.5 61.7 31 -0.5 31
21:55 1020 30.12 849 25.07 16.6 62 30 -0.7 30.7
22:00 1020 30.12 849 25.07 16.8 62.2 30 -0.6 30.9
22:05 1020 30.12 849 25.07 16.6 61.8 31 -0.5 31.1
22:10 1020 30.12 849 25.07 16.5 61.6 31 -0.6 30.9
22:15 1020 30.12 849 25.07 16.7 62.1 30 -0.7 30.7
22:20 1020 30.12 849 25.07 16.9 62.4 31 -0.1 31.8
22:25 1020 30.12 849 25.07 17 62.5 29 -1 30.3
22:30 1020 30.12 849 25.07 16.9 62.4 31 -0.2 31.6
22:35 1020 30.12 849 25.07 16.8 62.3 29 -1.1 29.9
22:40 1020 30.12 849 25.07 17 62.6 29 -1.1 30
22:45 1020 30.12 849 25.07 17.1 62.7 31 -0.1 31.9
22:50 1020 30.12 849 25.07 17.2 63 29 -1.1 30.1
22:55 1020 30.12 849 25.07 17.1 62.8 29 -1.1 30.1
23:00 1020 30.12 849 25.07 17.2 63 31 -0.1 31.8
23:05 1020 30.12 849 25.07 17.3 63.1 29 -0.9 30.3
23:10 1020 30.12 849 25.07 17 62.6 29 -1.1 30
23:15 1020 30.12 849 25.07 17 62.7 28 -1.4 29.5
23:20 1020 30.12 849 25.07 17.2 62.9 29 -0.8 30.5
23:25 1020 30.12 849 25.07 16.9 62.5 30 -0.7 30.7
23:30 1020 30.12 849 25.07 16.9 62.5 29 -1.1 30.1
23:35 1020 30.12 849 25.07 17 62.5 30 -0.8 30.6
23:40 1020 30.12 849 25.07 16.5 61.7 36 1.6 35
23:45 1020 30.12 849 25.07 15.8 60.4 32 -0.8 30.6
23:50 1020 30.12 849 25.07 16.3 61.4 29 -1.5 29.3
23:55 1020 30.12 849 25.07 16.7 62 30 -0.8 30.5
24:00 1020 30.12 849 25.07 15.9 60.5 32 -0.7 30.8